createdAt,value
2022-07-26T00:01:56.470Z,1.60
2022-07-26T00:04:23.617Z,1.40
2022-07-26T00:06:50.412Z,1.33
2022-07-26T00:09:17.410Z,1.25
2022-07-26T00:11:44.663Z,1.30
2022-07-26T00:14:11.572Z,1.20
2022-07-26T00:16:38.605Z,1.33
2022-07-26T00:19:07.749Z,1.40
2022-07-26T00:21:36.919Z,1.52
2022-07-26T00:24:08.303Z,1.48
2022-07-26T00:26:35.221Z,1.42
2022-07-26T00:29:04.316Z,1.40
2022-07-26T00:31:32.370Z,1.67
2022-07-26T00:33:59.225Z,1.50
2022-07-26T00:36:27.512Z,1.48
2022-07-26T00:38:54.365Z,1.77
2022-07-26T00:41:21.161Z,1.13
2022-07-26T00:43:59.201Z,1.27
2022-07-26T00:46:26.481Z,1.60
2022-07-26T00:48:53.611Z,1.63
2022-07-26T00:51:21.121Z,1.70
2022-07-26T00:53:48.517Z,1.27
2022-07-26T00:56:16.493Z,1.30
2022-07-26T00:58:44.621Z,1.40
2022-07-26T01:01:11.880Z,1.40
2022-07-26T01:03:39.632Z,1.58
2022-07-26T01:06:07.133Z,1.58
2022-07-26T01:08:34.131Z,1.52
2022-07-26T01:11:00.997Z,1.27
2022-07-26T01:13:31.876Z,1.35
2022-07-26T01:16:02.091Z,1.35
2022-07-26T01:18:29.016Z,1.70
2022-07-26T01:20:57.803Z,1.50
2022-07-26T01:23:24.805Z,1.35
2022-07-26T01:25:52.144Z,1.40
2022-07-26T01:28:20.110Z,1.35
2022-07-26T01:30:48.996Z,1.60
2022-07-26T01:33:16.102Z,1.73
2022-07-26T01:35:42.966Z,1.75
2022-07-26T01:38:09.884Z,1.50
2022-07-26T01:40:36.618Z,1.50
2022-07-26T01:43:03.608Z,1.83
2022-07-26T01:45:31.903Z,1.55
2022-07-26T01:47:59.233Z,1.60
2022-07-26T01:50:26.119Z,1.60
2022-07-26T01:52:53.039Z,1.35
2022-07-26T01:55:19.916Z,1.85
2022-07-26T01:57:47.101Z,1.55
2022-07-26T02:00:14.559Z,1.85
2022-07-26T02:02:41.425Z,1.38
2022-07-26T02:05:09.387Z,1.80
2022-07-26T02:07:43.057Z,1.60
2022-07-26T02:10:14.646Z,1.55
2022-07-26T02:12:41.757Z,1.58
2022-07-26T02:15:10.131Z,1.77
2022-07-26T02:17:37.104Z,1.90
2022-07-26T02:20:04.776Z,1.30
2022-07-26T02:22:31.732Z,1.75
2022-07-26T02:25:02.937Z,1.50
2022-07-26T02:27:31.696Z,1.77
2022-07-26T02:29:58.450Z,1.73
2022-07-26T02:32:25.205Z,1.67
2022-07-26T02:34:51.944Z,1.83
2022-07-26T02:37:18.709Z,1.60
2022-07-26T02:39:45.455Z,1.60
2022-07-26T02:42:12.204Z,1.52
2022-07-26T02:44:39.034Z,1.73
2022-07-26T02:47:05.823Z,1.42
2022-07-26T02:49:32.980Z,1.33
2022-07-26T02:51:59.801Z,1.70
2022-07-26T02:54:26.614Z,1.50
2022-07-26T02:56:53.353Z,1.63
2022-07-26T02:59:20.155Z,1.65
2022-07-26T03:01:47.295Z,1.60
2022-07-26T03:04:14.162Z,1.40
2022-07-26T03:06:40.991Z,1.83
2022-07-26T03:09:07.752Z,1.63
2022-07-26T03:11:34.638Z,1.48
2022-07-26T03:14:02.045Z,1.80
2022-07-26T03:16:29.889Z,1.40
2022-07-26T03:18:57.249Z,1.50
2022-07-26T03:21:24.726Z,1.55
2022-07-26T03:23:51.445Z,1.92
2022-07-26T03:26:18.260Z,2.00
2022-07-26T03:28:45.229Z,1.90
2022-07-26T03:31:13.073Z,1.52
2022-07-26T03:33:40.874Z,1.60
2022-07-26T03:36:11.566Z,1.50
2022-07-26T03:38:40.299Z,1.30
2022-07-26T03:41:07.235Z,1.75
2022-07-26T03:43:36.469Z,1.80
2022-07-26T03:46:03.743Z,2.10
2022-07-26T03:48:31.298Z,2.00
2022-07-26T03:50:58.191Z,1.65
2022-07-26T03:53:25.132Z,1.40
2022-07-26T03:56:11.697Z,1.50
2022-07-26T03:58:38.640Z,1.77
2022-07-26T04:01:05.462Z,1.98
2022-07-26T04:03:32.281Z,1.67
2022-07-26T04:05:59.752Z,1.67
2022-07-26T04:08:28.357Z,1.58
2022-07-26T04:10:55.603Z,1.90
2022-07-26T04:13:24.061Z,1.73
2022-07-26T04:15:51.451Z,1.50
2022-07-26T04:18:18.235Z,1.67
2022-07-26T04:20:45.559Z,2.00
2022-07-26T04:23:12.703Z,1.50
2022-07-26T04:25:41.314Z,1.52
2022-07-26T04:28:09.236Z,1.50
2022-07-26T04:30:36.836Z,1.80
2022-07-26T04:33:04.350Z,1.45
2022-07-26T04:35:31.334Z,1.35
2022-07-26T04:37:58.584Z,1.95
2022-07-26T04:40:28.422Z,1.58
2022-07-26T04:42:56.318Z,2.20
2022-07-26T04:45:23.047Z,1.98
2022-07-26T04:47:50.925Z,1.58
2022-07-26T04:50:22.093Z,1.70
2022-07-26T04:52:50.588Z,1.73
2022-07-26T04:55:18.615Z,1.70
2022-07-26T04:57:47.460Z,1.38
2022-07-26T05:00:21.970Z,1.50
2022-07-26T05:02:51.525Z,1.42
2022-07-26T05:05:18.342Z,1.85
2022-07-26T05:07:47.087Z,1.55
2022-07-26T05:10:15.603Z,1.50
2022-07-26T05:12:42.467Z,1.98
2022-07-26T05:15:14.135Z,1.42
2022-07-26T05:17:44.339Z,1.88
2022-07-26T05:20:14.225Z,2.13
2022-07-26T05:22:42.030Z,1.80
2022-07-26T05:25:09.105Z,1.88
2022-07-26T05:27:36.023Z,1.73
2022-07-26T05:30:03.350Z,2.00
2022-07-26T05:32:30.336Z,1.80
2022-07-26T05:34:57.144Z,1.63
2022-07-26T05:37:23.936Z,1.80
2022-07-26T05:39:50.942Z,1.80
2022-07-26T05:42:18.155Z,1.92
2022-07-26T05:44:44.923Z,2.10
2022-07-26T05:47:12.058Z,1.70
2022-07-26T05:49:40.079Z,1.63
2022-07-26T05:52:08.469Z,1.70
2022-07-26T05:54:35.790Z,1.73
2022-07-26T05:57:03.845Z,1.90
2022-07-26T05:59:31.023Z,1.70
2022-07-26T06:01:58.094Z,1.50
2022-07-26T06:04:26.018Z,1.80
2022-07-26T06:06:54.934Z,1.83
2022-07-26T06:09:24.189Z,1.80
2022-07-26T06:11:51.849Z,1.25
2022-07-26T06:14:19.486Z,2.03
2022-07-26T06:16:47.321Z,2.10
2022-07-26T06:19:14.139Z,1.90
2022-07-26T06:21:42.143Z,2.03
2022-07-26T06:24:09.107Z,1.52
2022-07-26T06:26:36.147Z,2.05
2022-07-26T06:29:03.121Z,1.98
2022-07-26T06:31:30.044Z,1.80
2022-07-26T06:33:56.925Z,1.83
2022-07-26T06:36:28.552Z,1.60
2022-07-26T06:38:57.237Z,1.60
2022-07-26T06:41:24.136Z,1.98
2022-07-26T06:43:51.012Z,1.33
2022-07-26T06:46:19.334Z,1.80
2022-07-26T06:48:47.243Z,1.67
2022-07-26T06:51:14.896Z,2.10
2022-07-26T06:53:42.704Z,1.75
2022-07-26T06:56:09.611Z,1.70
2022-07-26T06:58:38.899Z,2.10
2022-07-26T07:01:06.073Z,1.90
2022-07-26T07:03:32.902Z,1.90
2022-07-26T07:05:59.700Z,1.98
2022-07-26T07:08:26.580Z,1.98
2022-07-26T07:10:53.606Z,1.83
2022-07-26T07:13:21.146Z,1.70
2022-07-26T07:15:47.913Z,1.75
2022-07-26T07:18:14.878Z,2.00
2022-07-26T07:20:41.702Z,1.88
2022-07-26T07:23:08.546Z,2.03
2022-07-26T07:25:35.318Z,1.95
2022-07-26T07:28:02.511Z,2.03
2022-07-26T07:30:29.331Z,1.92
2022-07-26T07:32:56.593Z,1.60
2022-07-26T07:35:23.853Z,1.70
2022-07-26T07:37:53.098Z,1.63
2022-07-26T07:40:21.273Z,2.00
2022-07-26T07:42:48.117Z,2.25
2022-07-26T07:45:15.055Z,1.52
2022-07-26T07:47:41.874Z,1.25
2022-07-26T07:50:09.087Z,1.40
2022-07-26T07:52:35.903Z,1.40
2022-07-26T07:55:40.344Z,1.33
2022-07-26T07:57:51.275Z,1.10
2022-07-26T08:00:19.507Z,1.50
2022-07-26T08:02:53.960Z,1.52
2022-07-26T08:05:21.595Z,1.77
2022-07-26T08:07:48.737Z,1.77
2022-07-26T08:10:16.991Z,1.30
2022-07-26T08:12:46.795Z,1.33
2022-07-26T08:15:19.368Z,1.50
2022-07-26T08:17:51.030Z,1.50
2022-07-26T08:20:23.715Z,1.48
2022-07-26T08:22:54.775Z,1.75
2022-07-26T08:25:21.906Z,1.30
2022-07-26T08:28:03.185Z,1.88
2022-07-26T08:30:31.763Z,1.30
2022-07-26T08:32:59.002Z,1.52
2022-07-26T08:35:25.790Z,1.52
2022-07-26T08:37:52.587Z,1.52
2022-07-26T08:40:19.567Z,1.10
2022-07-26T08:42:55.453Z,1.30
2022-07-26T08:45:27.318Z,1.20
2022-07-26T08:48:16.635Z,1.50
2022-07-26T08:50:42.223Z,1.23
2022-07-26T08:53:12.027Z,1.10
2022-07-26T08:56:05.330Z,1.10
2022-07-26T08:58:26.083Z,1.20
2022-07-26T09:01:08.315Z,1.45
2022-07-26T09:03:38.132Z,1.02
2022-07-26T09:06:12.959Z,1.40
2022-07-26T09:08:39.879Z,1.42
2022-07-26T09:11:28.359Z,1.15
2022-07-26T09:14:06.210Z,1.50
2022-07-26T09:16:37.560Z,1.30
2022-07-26T09:19:17.921Z,1.45
2022-07-26T09:21:46.519Z,1.38
2022-07-26T09:24:13.957Z,1.17
2022-07-26T09:26:40.796Z,0.93
2022-07-26T09:29:09.638Z,1.23
2022-07-26T09:31:38.551Z,1.10
2022-07-26T09:34:07.291Z,1.13
2022-07-26T09:36:51.622Z,1.05
2022-07-26T09:39:33.655Z,1.13
2022-07-26T09:42:28.446Z,1.20
2022-07-26T09:44:57.369Z,1.00
2022-07-26T09:47:36.643Z,1.10
2022-07-26T09:50:22.300Z,1.10
2022-07-26T09:53:07.235Z,1.00
2022-07-26T09:55:44.153Z,1.25
2022-07-26T09:58:16.616Z,1.52
2022-07-26T10:00:44.262Z,0.82
2022-07-26T10:03:12.335Z,0.98
2022-07-26T10:05:39.505Z,0.88
2022-07-26T10:08:07.127Z,0.70
2022-07-26T10:10:38.894Z,1.13
2022-07-26T10:13:07.952Z,1.02
2022-07-26T10:15:39.434Z,1.02
2022-07-26T10:18:11.701Z,1.00
2022-07-26T10:20:52.759Z,0.82
2022-07-26T10:23:38.516Z,1.25
2022-07-26T10:26:14.683Z,1.00
2022-07-26T10:28:42.892Z,1.00
2022-07-26T10:31:31.081Z,0.95
2022-07-26T10:34:01.704Z,0.93
2022-07-26T10:36:35.332Z,0.98
2022-07-26T10:39:16.187Z,0.90
2022-07-26T10:41:48.104Z,0.85
2022-07-26T10:44:16.489Z,0.77
2022-07-26T10:47:00.173Z,1.30
2022-07-26T10:49:32.552Z,1.33
2022-07-26T10:52:07.869Z,0.98
2022-07-26T10:54:59.248Z,0.90
2022-07-26T10:59:57.441Z,0.93
2022-07-26T11:02:32.338Z,1.00
2022-07-26T11:05:02.961Z,1.05
2022-07-26T11:07:30.679Z,1.10
2022-07-26T11:10:01.143Z,1.02
2022-07-26T11:12:28.132Z,1.35
2022-07-26T11:14:54.860Z,1.00
2022-07-26T11:17:26.294Z,0.90
2022-07-26T11:19:53.346Z,0.95
2022-07-26T11:22:20.971Z,1.38
2022-07-26T11:24:47.801Z,1.10
2022-07-26T11:27:14.556Z,1.00
2022-07-26T11:29:41.821Z,1.10
2022-07-26T11:32:22.193Z,0.93
2022-07-26T11:35:00.082Z,1.00
2022-07-26T11:37:27.322Z,1.20
2022-07-26T11:39:54.262Z,1.00
2022-07-26T11:42:22.384Z,1.15
2022-07-26T11:44:50.389Z,1.10
2022-07-26T11:47:21.379Z,0.80
2022-07-26T11:52:41.160Z,1.30
2022-07-26T11:55:08.632Z,1.25
2022-07-26T11:57:35.364Z,1.00
2022-07-26T12:00:02.447Z,0.80
2022-07-26T12:02:38.292Z,0.93
2022-07-26T12:05:20.464Z,1.30
2022-07-26T12:08:04.142Z,1.20
2022-07-26T12:10:31.275Z,0.80
2022-07-26T12:13:12.373Z,0.80
2022-07-26T12:15:51.228Z,0.90
2022-07-26T12:18:37.201Z,0.77
2022-07-26T12:21:09.504Z,1.10
2022-07-26T12:23:48.634Z,0.98
2022-07-26T12:26:22.907Z,0.80
2022-07-26T12:28:49.742Z,1.00
2022-07-26T12:31:34.119Z,1.00
2022-07-26T12:34:01.572Z,0.95
2022-07-26T12:36:29.865Z,0.88
2022-07-26T12:38:58.617Z,0.88
2022-07-26T12:41:39.480Z,0.90
2022-07-26T12:44:08.514Z,1.00
2022-07-26T12:46:36.738Z,0.80
2022-07-26T12:49:05.110Z,0.80
2022-07-26T12:51:32.408Z,1.00
2022-07-26T12:53:59.494Z,0.70
2022-07-26T12:56:26.228Z,0.82
2022-07-26T12:58:54.280Z,0.85
2022-07-26T13:01:21.630Z,0.90
2022-07-26T13:03:48.486Z,1.02
2022-07-26T13:06:15.198Z,0.80
2022-07-26T13:08:41.927Z,0.90
2022-07-26T13:11:08.684Z,0.75
2022-07-26T13:13:35.525Z,1.10
2022-07-26T13:16:11.204Z,0.90
2022-07-26T13:18:38.714Z,0.80
2022-07-26T13:21:09.037Z,0.82
2022-07-26T13:23:36.275Z,0.90
2022-07-26T13:26:04.201Z,0.85
2022-07-26T13:28:31.293Z,0.77
2022-07-26T13:30:58.199Z,0.90
2022-07-26T13:33:25.356Z,1.05
2022-07-26T13:35:52.439Z,1.60
2022-07-26T13:38:20.231Z,1.17
2022-07-26T13:40:50.469Z,1.00
2022-07-26T13:43:17.431Z,1.43
2022-07-26T13:45:44.280Z,1.10
2022-07-26T13:48:11.374Z,1.05
2022-07-26T13:50:38.459Z,0.82
2022-07-26T13:53:05.268Z,0.88
2022-07-26T13:55:32.240Z,1.10
2022-07-26T13:57:59.353Z,1.00
2022-07-26T14:00:29.865Z,1.17
2022-07-26T14:03:00.691Z,0.90
2022-07-26T14:05:28.851Z,0.73
2022-07-26T14:07:55.842Z,0.98
2022-07-26T14:10:24.178Z,0.90
2022-07-26T14:12:52.052Z,0.93
2022-07-26T14:15:22.731Z,0.90
2022-07-26T14:17:51.582Z,0.70
2022-07-26T14:20:18.427Z,0.93
2022-07-26T14:22:45.977Z,0.90
2022-07-26T14:25:12.731Z,1.00
2022-07-26T14:27:39.585Z,0.70
2022-07-26T14:30:07.094Z,0.80
2022-07-26T14:32:34.265Z,0.98
2022-07-26T14:35:01.293Z,1.35
2022-07-26T14:37:44.401Z,1.08
2022-07-26T14:40:17.169Z,1.00
2022-07-26T14:42:45.659Z,1.17
2022-07-26T14:45:13.543Z,1.13
2022-07-26T14:47:40.542Z,1.10
2022-07-26T14:50:08.723Z,0.93
2022-07-26T14:52:40.691Z,1.20
2022-07-26T14:55:08.268Z,1.17
2022-07-26T14:57:39.087Z,0.90
2022-07-26T15:00:08.880Z,1.00
2022-07-26T15:02:37.606Z,1.25
2022-07-26T15:05:07.958Z,1.25
2022-07-26T15:07:34.741Z,0.85
2022-07-26T15:10:01.545Z,0.98
2022-07-26T15:12:28.379Z,1.00
2022-07-26T15:14:55.457Z,1.02
2022-07-26T15:17:22.321Z,0.90
2022-07-26T15:19:52.296Z,1.00
2022-07-26T15:22:19.266Z,0.95
2022-07-26T15:24:45.963Z,0.80
2022-07-26T15:27:12.846Z,0.80
2022-07-26T15:29:39.634Z,1.05
2022-07-26T15:32:07.229Z,1.10
2022-07-26T15:34:34.478Z,0.95
2022-07-26T15:37:01.492Z,1.15
2022-07-26T15:39:28.303Z,1.10
2022-07-26T15:42:01.416Z,1.02
2022-07-26T15:44:37.854Z,1.10
2022-07-26T15:47:11.732Z,1.50
2022-07-26T15:49:40.320Z,1.00
2022-07-26T15:52:10.393Z,1.00
2022-07-26T15:54:41.419Z,1.30
2022-07-26T15:59:36.510Z,1.10
2022-07-26T16:02:06.163Z,1.20
2022-07-26T16:04:33.075Z,1.40
2022-07-26T16:07:00.334Z,0.93
2022-07-26T16:09:27.566Z,1.08
2022-07-26T16:11:54.575Z,0.90
2022-07-26T16:14:21.459Z,1.23
2022-07-26T16:16:48.365Z,1.30
2022-07-26T16:19:15.609Z,1.30
2022-07-26T16:21:42.663Z,1.20
2022-07-26T16:24:09.466Z,1.00
2022-07-26T16:26:36.519Z,1.10
2022-07-26T16:29:04.457Z,0.93
2022-07-26T16:31:33.050Z,1.17
2022-07-26T16:34:00.272Z,1.15
2022-07-26T16:36:27.470Z,1.00
2022-07-26T16:38:54.484Z,1.08
2022-07-26T16:41:21.391Z,0.80
2022-07-26T16:43:48.277Z,0.82
2022-07-26T16:46:15.486Z,1.00
2022-07-26T16:48:42.688Z,1.20
2022-07-26T16:51:09.563Z,0.90
2022-07-26T16:53:36.291Z,1.15
2022-07-26T16:56:03.072Z,0.95
2022-07-26T16:58:29.841Z,1.15
2022-07-26T17:00:56.672Z,0.93
2022-07-26T17:03:23.881Z,1.00
2022-07-26T17:05:51.160Z,1.10
2022-07-26T17:08:18.753Z,1.13
2022-07-26T17:10:45.818Z,1.10
2022-07-26T17:13:12.743Z,0.88
2022-07-26T17:15:39.901Z,1.00
2022-07-26T17:18:06.726Z,1.00
2022-07-26T17:20:33.506Z,1.10
2022-07-26T17:23:00.439Z,1.30
2022-07-26T17:25:27.721Z,1.25
2022-07-26T17:27:54.493Z,1.30
2022-07-26T17:30:21.450Z,0.98
2022-07-26T17:32:48.216Z,1.25
2022-07-26T17:35:15.136Z,1.17
2022-07-26T17:37:42.124Z,0.75
2022-07-26T17:40:11.031Z,1.10
2022-07-26T17:42:38.840Z,0.98
2022-07-26T17:45:06.715Z,1.00
2022-07-26T17:47:33.618Z,0.85
2022-07-26T17:52:53.095Z,0.95
2022-07-26T17:55:20.702Z,0.90
2022-07-26T17:57:49.681Z,0.90
2022-07-26T18:00:19.082Z,1.08
2022-07-26T18:02:46.608Z,0.75
2022-07-26T18:05:13.923Z,1.10
2022-07-26T18:07:40.973Z,1.10
2022-07-26T18:10:08.825Z,1.17
2022-07-26T18:12:35.621Z,1.30
2022-07-26T18:15:02.399Z,1.40
2022-07-26T18:17:29.658Z,1.23
2022-07-26T18:19:56.467Z,1.13
2022-07-26T18:22:23.406Z,1.10
2022-07-26T18:24:50.268Z,1.23
2022-07-26T18:27:17.046Z,1.23
2022-07-26T18:29:44.027Z,1.15
2022-07-26T18:32:11.144Z,1.20
2022-07-26T18:34:37.939Z,1.58
2022-07-26T18:37:05.285Z,0.95
2022-07-26T18:39:32.721Z,1.17
2022-07-26T18:42:01.091Z,1.00
2022-07-26T18:44:28.227Z,1.10
2022-07-26T18:46:56.373Z,1.20
2022-07-26T18:49:30.905Z,1.13
2022-07-26T18:52:04.256Z,1.60
2022-07-26T18:54:35.588Z,1.30
2022-07-26T18:57:02.625Z,1.10
2022-07-26T18:59:30.897Z,1.17
2022-07-26T19:01:59.566Z,1.30
2022-07-26T19:04:26.620Z,1.30
2022-07-26T19:06:53.576Z,1.50
2022-07-26T19:09:20.313Z,1.25
2022-07-26T19:11:47.080Z,1.13
2022-07-26T19:14:13.839Z,1.00
2022-07-26T19:16:40.842Z,1.20
2022-07-26T19:19:07.643Z,1.40
2022-07-26T19:21:34.571Z,1.08
2022-07-26T19:24:01.325Z,1.20
2022-07-26T19:26:29.653Z,1.10
2022-07-26T19:28:56.529Z,1.40
2022-07-26T19:31:24.030Z,1.10
2022-07-26T19:33:50.870Z,1.23
2022-07-26T19:36:25.614Z,1.25
2022-07-26T19:38:55.789Z,1.33
2022-07-26T19:41:23.621Z,1.17
2022-07-26T19:43:50.756Z,1.63
2022-07-26T19:46:17.830Z,1.50
2022-07-26T19:48:44.744Z,1.30
2022-07-26T19:51:11.566Z,1.38
2022-07-26T19:53:38.362Z,1.10
2022-07-26T19:56:05.435Z,1.40
2022-07-26T19:58:32.393Z,1.48
2022-07-26T20:00:59.348Z,8.05
2022-07-26T20:03:26.098Z,4.50
2022-07-26T20:05:53.740Z,4.07
2022-07-26T20:08:21.083Z,2.85
2022-07-26T20:10:47.937Z,2.50
2022-07-26T20:13:15.103Z,1.42
2022-07-26T20:15:42.232Z,1.80
2022-07-26T20:18:10.495Z,1.70
2022-07-26T20:20:37.317Z,1.50
2022-07-26T20:23:06.039Z,1.60
2022-07-26T20:25:33.323Z,1.67
2022-07-26T20:28:00.505Z,1.58
2022-07-26T20:30:27.947Z,1.60
2022-07-26T20:32:54.981Z,1.70
2022-07-26T20:35:21.844Z,1.55
2022-07-26T20:37:48.718Z,1.50
2022-07-26T20:40:17.914Z,1.70
2022-07-26T20:42:45.605Z,1.83
2022-07-26T20:45:14.685Z,1.23
2022-07-26T20:47:44.694Z,1.27
2022-07-26T20:50:12.100Z,1.70
2022-07-26T20:52:39.537Z,1.25
2022-07-26T20:55:07.086Z,1.30
2022-07-26T20:57:33.917Z,1.75
2022-07-26T21:00:01.087Z,1.45
2022-07-26T21:02:28.119Z,3.58
2022-07-26T21:04:55.130Z,2.90
2022-07-26T21:07:22.366Z,3.33
2022-07-26T21:09:49.098Z,2.83
2022-07-26T21:12:15.997Z,3.28
2022-07-26T21:14:42.793Z,2.03
2022-07-26T21:17:12.038Z,2.30
2022-07-26T21:19:40.031Z,2.25
2022-07-26T21:22:07.277Z,2.95
2022-07-26T21:24:37.587Z,2.55
2022-07-26T21:27:05.586Z,2.45
2022-07-26T21:29:32.621Z,2.60
2022-07-26T21:32:06.380Z,2.22
2022-07-26T21:34:34.304Z,2.60
2022-07-26T21:37:03.787Z,3.25
2022-07-26T21:39:30.701Z,3.58
2022-07-26T21:41:57.624Z,2.50
2022-07-26T21:44:24.525Z,2.60
2022-07-26T21:46:54.805Z,2.60
2022-07-26T21:49:21.677Z,2.97
2022-07-26T21:51:48.536Z,2.60
2022-07-26T21:54:15.305Z,2.72
2022-07-26T21:56:42.970Z,2.50
2022-07-26T21:59:09.969Z,2.17
2022-07-26T22:01:36.984Z,2.63
2022-07-26T22:04:04.194Z,2.45
2022-07-26T22:06:30.927Z,2.55
2022-07-26T22:08:58.065Z,2.63
2022-07-26T22:11:25.130Z,2.85
2022-07-26T22:13:52.398Z,2.80
2022-07-26T22:16:19.218Z,2.40
2022-07-26T22:18:46.081Z,2.67
2022-07-26T22:21:13.132Z,2.60
2022-07-26T22:23:39.973Z,3.25
2022-07-26T22:26:06.923Z,2.70
2022-07-26T22:28:34.898Z,2.70
2022-07-26T22:31:02.058Z,3.28
2022-07-26T22:33:28.962Z,2.45
2022-07-26T22:35:55.828Z,2.65
2022-07-26T22:38:22.833Z,2.65
2022-07-26T22:40:49.638Z,2.45
2022-07-26T22:43:16.457Z,2.58
2022-07-26T22:45:43.399Z,2.88
2022-07-26T22:48:10.557Z,2.95
2022-07-26T22:50:37.436Z,2.88
2022-07-26T22:53:04.564Z,2.50
2022-07-26T22:55:31.849Z,2.58
2022-07-26T22:57:59.428Z,2.63
2022-07-26T23:00:26.290Z,3.00
2022-07-26T23:02:53.755Z,3.28
2022-07-26T23:05:20.563Z,3.30
2022-07-26T23:07:48.661Z,2.50
2022-07-26T23:10:16.461Z,2.63
2022-07-26T23:12:44.042Z,3.03
2022-07-26T23:15:11.446Z,2.92
2022-07-26T23:17:38.238Z,2.83
2022-07-26T23:20:09.339Z,2.90
2022-07-26T23:22:36.490Z,2.47
2022-07-26T23:25:03.498Z,2.70
2022-07-26T23:27:30.430Z,2.67
2022-07-26T23:29:57.348Z,2.60
2022-07-26T23:32:24.292Z,2.88
2022-07-26T23:34:51.178Z,2.80
2022-07-26T23:37:18.762Z,2.85
2022-07-26T23:39:45.740Z,3.03
2022-07-26T23:42:12.738Z,2.80
2022-07-26T23:44:39.597Z,2.97
2022-07-26T23:47:06.673Z,2.60
2022-07-26T23:49:33.635Z,2.90
2022-07-26T23:52:00.560Z,2.35
2022-07-26T23:54:27.483Z,2.80
2022-07-26T23:56:54.328Z,3.15
2022-07-26T23:59:21.247Z,3.10
